Davenport, WA (99122)

6:33 AM PST on February 07, 2016 (GMT -0800)
Long Lake Dam | | Change Station
CLOSE
Current Station
Personal Weather Station
Location: Ford, WA
Elevation: 1775 ft
Nearby Weather Stations

Elev 1775 ft 47.82 °N, 117.83 °W | Updated 3 seconds ago

Clear
Clear
24.9 °F
Feels Like 25 °F
N
1.2
Wind Variable Wind from WSW
Gusts 1.2 mph

Today
High -- | Low -- °F
--% Chance of Precip.
Yesterday
High -- | Low -- °F
Precip. -- in
Pressure 30.53 in
Visibility 0.5 miles
Clouds
Windchill 25 °F
Dew Point 26 °F
Humidity 100%
Rainfall 0.00 in
Snow Depth Not available.
7:11 AM 5:02 PM
Waning Crescent, 1% visible
SPECI KSKA 071416Z AUTO 09006KT 1/2SM R05/3000FT FZFG VV001 M04/M04 A3053 RMK AO2 FZDZB05E06FZDZB07E08FZDZB09E10FZDZB11E12FZDZB13E14FZDZB15E16 PWINO $
Pressure 30.53 in
Visibility 0.5 miles
Clouds
Windchill 25 °F
Dew Point 26 °F
Humidity 100%
Rainfall 0.00 in
Snow Depth Not available.
7:11 AM 5:02 PM
Waning Crescent, 1% visible
SPECI KSKA 071416Z AUTO 09006KT 1/2SM R05/3000FT FZFG VV001 M04/M04 A3053 RMK AO2 FZDZB05E06FZDZB07E08FZDZB09E10FZDZB11E12FZDZB13E14FZDZB15E16 PWINO $

10-Day Weather Forecast

Almanac

Astronomy

Feb. 07, 2016 Rise Set
Actual Time
Civil Twilight
Nautical Twilight
Astronomical Twilight
Moon
Length of Visible Light
Length of Day
Tomorrow will be .
, % of the Moon is Illuminated

Today's Extremes

State Highs State Lows

Community

WunderPhotos

Upload Photos

1,891,204 photos uploaded!

WunderBlog® & News

Nearby

Air Quality

  Air Quality AQ Index Pollutant
Not available.

Snow Depth

Station Depth Elevation

Earthquake Activity

City Distance Mag. Time & Date
Minimum magnitude displayed is 2.5.

Coastal Water Temperatures

Place Temperature

Stations

Nearby Weather Stations

Station Location Temp. Windchill Dew Point Humidity Wind Precip. Elev Updated Type
                   

Watches & Warnings

There are currently no watches in effect.